Time;durP1;ratioP1;P1;durP2;ratioP2;P2;SDS_P1;SDS_P2;PMS_P1;PMS_P2;Temp;Humidity;BMP_temperature;BMP_pressure;BME280_temperature;BME280_humidity;BME280_pressure;Samples;Min_cycle;Max_cycle;Signal;HPM_P1;HPM_P2
2022/01/20 00:01:14;;;;;;;10.07;4.90;;;2.00;97.00;;;;;;5042124;28;20021;-69
2022/01/20 00:03:42;;;;;;;9.25;5.30;;;2.00;97.30;;;;;;5035734;28;20370;-69
2022/01/20 00:09:17;;;;;;;;;;;1.90;97.20;;;;;;5047475;28;20052;-68
2022/01/20 00:28:17;;;;;;;9.55;5.78;;;1.90;97.50;;;;;;5040203;28;20467;-69
2022/01/20 00:31:03;;;;;;;8.95;4.95;;;1.90;97.50;;;;;;5038738;28;20028;-68
2022/01/20 00:38:36;;;;;;;8.63;5.10;;;1.80;97.60;;;;;;5038829;28;20126;-68
2022/01/20 00:41:05;;;;;;;9.48;5.18;;;1.90;97.50;;;;;;5055962;28;20042;-68
2022/01/20 00:43:31;;;;;;;9.77;5.88;;;1.90;97.40;;;;;;5038990;28;20447;-69
2022/01/20 00:45:56;;;;;;;9.30;5.85;;;1.80;97.90;;;;;;5034165;28;20029;-69
2022/01/20 00:48:25;;;;;;;10.10;6.38;;;1.70;98.00;;;;;;5032791;28;20091;-68
2022/01/20 00:50:51;;;;;;;8.25;5.05;;;1.60;98.00;;;;;;5038199;28;20318;-69
2022/01/20 00:53:18;;;;;;;10.05;6.03;;;1.60;98.00;;;;;;5038665;28;20041;-68
2022/01/20 00:55:44;;;;;;;11.18;5.88;;;1.50;98.00;;;;;;5039698;28;20048;-68
2022/01/20 00:58:09;;;;;;;9.85;5.18;;;1.50;98.00;;;;;;5039804;28;20038;-68
2022/01/20 01:00:36;;;;;;;9.95;5.38;;;1.60;98.00;;;;;;5041657;28;20033;-69
2022/01/20 01:03:04;;;;;;;9.43;5.65;;;1.60;98.00;;;;;;5040842;28;20018;-69
2022/01/20 01:05:32;;;;;;;9.43;5.53;;;1.60;98.00;;;;;;5040605;28;20531;-69
2022/01/20 01:07:57;;;;;;;8.52;5.55;;;1.50;98.00;;;;;;5043431;28;20028;-69
2022/01/20 01:10:27;;;;;;;9.90;6.05;;;1.50;98.00;;;;;;5044726;28;20051;-69
2022/01/20 01:13:06;;;;;;;9.43;5.97;;;1.50;98.00;;;;;;5040493;28;20297;-69
2022/01/20 01:15:37;;;;;;;7.97;5.13;;;1.50;98.00;;;;;;5044403;28;20025;-68
2022/01/20 01:23:33;;;;;;;12.57;5.72;;;1.40;98.00;;;;;;5040890;28;20435;-69
2022/01/20 01:26:00;;;;;;;8.27;5.32;;;1.40;98.00;;;;;;5045272;28;20410;-69
2022/01/20 01:28:29;;;;;;;8.98;5.57;;;1.40;98.00;;;;;;5041880;28;20315;-70
2022/01/20 01:33:49;;;;;;;9.43;5.75;;;1.30;98.00;;;;;;5044303;28;20571;-69
2022/01/20 01:36:18;;;;;;;9.98;6.30;;;1.30;98.00;;;;;;5044645;28;20048;-69
2022/01/20 01:38:47;;;;;;;8.93;5.22;;;1.20;98.00;;;;;;5037515;28;20103;-70
2022/01/20 01:41:17;;;;;;;10.65;6.47;;;1.20;98.00;;;;;;5043589;28;20037;-70
2022/01/20 01:43:48;;;;;;;10.30;6.60;;;1.20;98.00;;;;;;5046986;28;20039;-70
2022/01/20 01:46:15;;;;;;;8.75;5.90;;;1.20;98.00;;;;;;5041117;28;20421;-69
2022/01/20 01:48:43;;;;;;;12.98;8.07;;;1.20;98.00;;;;;;5038057;28;20025;-69
2022/01/20 01:51:11;;;;;;;9.13;5.78;;;1.10;98.00;;;;;;5043155;28;20423;-68
2022/01/20 01:53:37;;;;;;;9.90;5.68;;;1.20;98.00;;;;;;5041025;28;20038;-69
2022/01/20 01:56:04;;;;;;;9.75;5.40;;;1.20;98.00;;;;;;5043228;28;20071;-68
2022/01/20 01:58:31;;;;;;;10.55;5.57;;;1.20;98.00;;;;;;5041540;28;20037;-69
2022/01/20 02:00:57;;;;;;;8.77;5.65;;;1.20;98.00;;;;;;5046893;28;20108;-71
2022/01/20 02:03:24;;;;;;;8.70;5.25;;;1.30;98.00;;;;;;5043104;28;20021;-68
2022/01/20 02:19:54;;;;;;;;;;;1.30;98.00;;;;;;5042937;28;20024;-69
2022/01/20 02:22:20;;;;;;;10.00;5.68;;;1.30;98.00;;;;;;5047693;28;20285;-69
2022/01/20 02:24:46;;;;;;;9.88;5.93;;;1.20;98.00;;;;;;5041152;28;20115;-69
2022/01/20 02:27:12;;;;;;;9.88;6.38;;;1.10;98.00;;;;;;5047621;28;20119;-70
2022/01/20 02:29:37;;;;;;;9.45;6.13;;;1.00;98.00;;;;;;5037696;28;20157;-69
2022/01/20 02:32:04;;;;;;;8.10;5.60;;;0.90;98.00;;;;;;5042886;28;20043;-69
2022/01/20 02:34:31;;;;;;;10.10;5.90;;;0.80;98.00;;;;;;5042326;28;20030;-69
2022/01/20 02:36:59;;;;;;;9.30;5.53;;;0.80;98.00;;;;;;5041626;28;20029;-69
2022/01/20 02:44:54;;;;;;;8.30;5.15;;;0.90;98.00;;;;;;5041175;28;20036;-70
2022/01/20 02:47:26;;;;;;;8.63;4.75;;;0.90;98.00;;;;;;5039819;28;20037;-69
2022/01/20 02:49:52;;;;;;;8.65;5.20;;;0.90;98.00;;;;;;5061638;28;20389;-69
2022/01/20 02:52:19;;;;;;;7.85;4.90;;;1.00;98.00;;;;;;5042243;28;20044;-70
2022/01/20 02:54:46;;;;;;;8.73;4.55;;;1.00;98.00;;;;;;5044071;28;20053;-69
2022/01/20 02:57:12;;;;;;;7.93;4.95;;;1.00;98.00;;;;;;5040191;28;20025;-69
2022/01/20 02:59:38;;;;;;;7.72;5.00;;;1.00;98.00;;;;;;5038741;28;20047;-69
2022/01/20 03:02:06;;;;;;;7.43;4.65;;;1.10;98.00;;;;;;5039946;28;20098;-69
2022/01/20 03:04:34;;;;;;;8.57;5.53;;;1.10;98.00;;;;;;5039199;28;20108;-70
2022/01/20 03:07:00;;;;;;;7.70;4.68;;;1.10;98.00;;;;;;5038562;28;20478;-69
2022/01/20 03:09:25;;;;;;;7.25;4.65;;;1.00;98.00;;;;;;5037597;28;20136;-69
2022/01/20 03:11:52;;;;;;;8.00;4.90;;;1.00;98.00;;;;;;5039485;28;20025;-69
2022/01/20 03:14:18;;;;;;;8.48;4.90;;;1.00;98.00;;;;;;5050760;28;20025;-70
2022/01/20 03:16:45;;;;;;;7.47;4.60;;;1.00;98.00;;;;;;5048270;28;20327;-69
2022/01/20 03:19:11;;;;;;;8.40;5.25;;;1.00;98.00;;;;;;5048630;28;20029;-69
2022/01/20 03:21:38;;;;;;;8.18;5.10;;;1.00;98.00;;;;;;5044400;28;20063;-69
2022/01/20 03:24:04;;;;;;;7.43;4.65;;;1.00;98.00;;;;;;5045347;28;20054;-69
2022/01/20 03:26:30;;;;;;;7.05;4.30;;;1.00;98.00;;;;;;5042032;28;20025;-70
2022/01/20 03:28:57;;;;;;;8.05;4.55;;;1.10;98.00;;;;;;5044029;28;20025;-69
2022/01/20 03:31:23;;;;;;;8.85;5.05;;;1.10;98.00;;;;;;5039056;28;20033;-69
2022/01/20 03:33:49;;;;;;;6.85;4.60;;;1.10;98.00;;;;;;5037223;28;20052;-69
2022/01/20 03:36:15;;;;;;;11.07;4.82;;;1.10;98.00;;;;;;5042391;28;20029;-69
2022/01/20 03:38:41;;;;;;;8.35;5.20;;;1.10;98.00;;;;;;5040563;28;20029;-69
2022/01/20 03:41:06;;;;;;;6.72;4.25;;;1.10;98.00;;;;;;5045559;28;20429;-69
2022/01/20 03:43:32;;;;;;;6.88;3.90;;;1.10;98.00;;;;;;5043520;28;20108;-70
2022/01/20 03:46:00;;;;;;;7.13;4.53;;;1.10;98.00;;;;;;5039436;28;20032;-70
2022/01/20 03:48:27;;;;;;;7.57;4.32;;;1.10;98.00;;;;;;5040150;28;20026;-70
2022/01/20 03:50:59;;;;;;;7.95;4.70;;;1.10;98.00;;;;;;5040544;28;20040;-69
2022/01/20 03:53:25;;;;;;;7.80;4.57;;;1.00;98.00;;;;;;5043300;28;20052;-69
2022/01/20 03:55:51;;;;;;;7.18;4.50;;;1.00;98.00;;;;;;5040304;28;20334;-69
2022/01/20 03:58:17;;;;;;;8.88;5.32;;;1.00;98.00;;;;;;5040474;28;20032;-69
2022/01/20 04:00:43;;;;;;;7.47;5.13;;;1.00;98.00;;;;;;5044004;28;20500;-70
2022/01/20 04:03:10;;;;;;;8.07;5.13;;;0.90;98.00;;;;;;5038408;28;20021;-68
2022/01/20 04:05:41;;;;;;;9.02;6.00;;;0.90;98.00;;;;;;5039890;28;20638;-69
2022/01/20 04:08:07;;;;;;;8.93;5.43;;;0.80;97.70;;;;;;5039320;28;20029;-69
2022/01/20 04:10:33;;;;;;;8.38;5.32;;;0.80;97.50;;;;;;5039338;28;20026;-69
2022/01/20 04:12:58;;;;;;;8.40;5.78;;;0.80;97.40;;;;;;5039162;28;20434;-70
2022/01/20 04:15:28;;;;;;;8.23;5.30;;;0.80;97.50;;;;;;5042245;28;20025;-69
2022/01/20 04:18:01;;;;;;;7.85;5.28;;;0.80;97.20;;;;;;5043002;28;20029;-69
2022/01/20 04:20:27;;;;;;;11.23;6.25;;;0.70;97.00;;;;;;5036851;28;20022;-69
2022/01/20 04:22:52;;;;;;;10.23;5.95;;;0.70;96.90;;;;;;5042551;28;20033;-70
2022/01/20 04:25:18;;;;;;;13.73;7.90;;;0.70;97.10;;;;;;5039836;28;20045;-70
2022/01/20 04:27:44;;;;;;;8.32;5.28;;;0.70;97.10;;;;;;5038044;28;20318;-70
2022/01/20 04:30:13;;;;;;;7.97;5.07;;;0.70;96.90;;;;;;5043097;28;20067;-69
2022/01/20 04:32:38;;;;;;;7.45;5.03;;;0.80;97.40;;;;;;5040686;28;20125;-69
2022/01/20 04:35:04;;;;;;;7.55;4.45;;;0.70;97.40;;;;;;5042976;28;20096;-70
2022/01/20 04:37:30;;;;;;;7.82;4.75;;;0.80;97.60;;;;;;5043325;28;20032;-69
2022/01/20 04:39:56;;;;;;;6.10;3.90;;;0.80;97.90;;;;;;5046031;28;20032;-69
2022/01/20 04:42:27;;;;;;;7.07;4.10;;;0.80;98.00;;;;;;5041302;28;20017;-68
2022/01/20 04:44:58;;;;;;;7.32;4.90;;;0.80;98.00;;;;;;5040220;28;20067;-68
2022/01/20 04:58:20;;;;;;;;;;;0.80;97.70;;;;;;5040916;28;20064;-69
2022/01/20 05:00:46;;;;;;;6.57;4.13;;;0.80;97.50;;;;;;5048048;28;19952;-70
2022/01/20 05:03:11;;;;;;;6.30;4.07;;;0.70;97.40;;;;;;5038605;28;20029;-70
2022/01/20 05:05:40;;;;;;;6.30;4.03;;;0.70;97.10;;;;;;5047363;28;20021;-69
2022/01/20 05:08:05;;;;;;;6.32;3.80;;;0.70;97.10;;;;;;5050952;28;20028;-67
2022/01/20 05:10:33;;;;;;;8.88;4.95;;;0.70;96.70;;;;;;5053903;28;20075;-67
2022/01/20 05:13:07;;;;;;;8.18;4.95;;;0.70;96.80;;;;;;5054181;28;20028;-67
2022/01/20 05:15:33;;;;;;;8.05;4.55;;;0.70;96.70;;;;;;5050981;28;20064;-69
2022/01/20 05:18:03;;;;;;;6.65;3.80;;;0.70;96.90;;;;;;5043726;28;20441;-69
2022/01/20 05:20:28;;;;;;;6.38;3.70;;;0.70;97.00;;;;;;5045793;28;20418;-69
2022/01/20 05:22:54;;;;;;;6.63;3.75;;;0.70;96.80;;;;;;5052014;28;20048;-69
2022/01/20 05:25:22;;;;;;;5.35;3.63;;;0.70;97.10;;;;;;5052389;28;20056;-69
2022/01/20 05:27:51;;;;;;;6.30;3.95;;;0.70;96.90;;;;;;5050401;28;20185;-69
2022/01/20 05:30:16;;;;;;;8.27;4.50;;;0.70;97.10;;;;;;5046187;28;20026;-69
2022/01/20 05:32:42;;;;;;;7.80;4.60;;;0.70;97.20;;;;;;5056729;28;20551;-69
2022/01/20 05:35:11;;;;;;;6.72;3.97;;;0.70;97.30;;;;;;5047493;28;20512;-70
2022/01/20 05:37:37;;;;;;;7.60;4.53;;;0.70;97.00;;;;;;5049714;28;20551;-69
2022/01/20 05:40:06;;;;;;;4.93;3.25;;;0.70;97.40;;;;;;5054459;28;20095;-69
2022/01/20 05:42:32;;;;;;;5.30;3.30;;;0.70;97.50;;;;;;5050784;28;20017;-69
2022/01/20 05:44:58;;;;;;;6.82;3.95;;;0.80;97.40;;;;;;5059121;28;20029;-69
2022/01/20 05:47:28;;;;;;;6.47;3.25;;;0.80;97.90;;;;;;5041804;28;20386;-69
2022/01/20 05:49:54;;;;;;;6.03;3.20;;;0.80;97.90;;;;;;5051223;28;20183;-69
2022/01/20 05:52:20;;;;;;;5.75;3.47;;;0.80;98.00;;;;;;5044151;28;20026;-69
2022/01/20 05:54:46;;;;;;;5.68;3.85;;;0.70;97.80;;;;;;5053098;28;20044;-69
2022/01/20 05:57:11;;;;;;;8.90;4.97;;;0.80;98.00;;;;;;5054453;28;20116;-68
2022/01/20 05:59:38;;;;;;;8.52;4.90;;;0.70;97.80;;;;;;5043333;28;20108;-68
2022/01/20 06:02:13;;;;;;;9.52;5.93;;;0.80;97.60;;;;;;5037582;28;20052;-69
2022/01/20 06:04:39;;;;;;;7.35;4.65;;;0.80;97.90;;;;;;5048198;28;20025;-69
2022/01/20 06:07:05;;;;;;;6.10;3.47;;;0.80;98.00;;;;;;5045959;28;20022;-69
2022/01/20 06:09:30;;;;;;;6.40;4.07;;;0.80;97.80;;;;;;5056158;28;20055;-69
2022/01/20 06:11:56;;;;;;;6.43;3.90;;;0.80;97.80;;;;;;5057967;28;20025;-69
2022/01/20 06:14:23;;;;;;;22.27;9.30;;;0.80;98.00;;;;;;5050888;28;20425;-69
2022/01/20 06:16:49;;;;;;;6.45;3.92;;;0.80;98.00;;;;;;5037028;28;20033;-68
2022/01/20 06:19:17;;;;;;;12.27;5.63;;;0.80;98.00;;;;;;5043021;28;20346;-69
2022/01/20 06:21:45;;;;;;;9.68;4.85;;;0.80;98.00;;;;;;5057749;28;20032;-69
2022/01/20 06:24:10;;;;;;;6.90;4.30;;;0.80;98.00;;;;;;5049220;28;20037;-69
2022/01/20 06:26:36;;;;;;;6.95;3.55;;;0.80;98.00;;;;;;5037864;28;20025;-70
2022/01/20 06:29:02;;;;;;;6.43;4.00;;;0.80;98.00;;;;;;5044227;28;20032;-69
2022/01/20 06:31:27;;;;;;;6.10;3.67;;;0.80;98.00;;;;;;5055034;28;20158;-69
2022/01/20 06:33:53;;;;;;;7.78;4.25;;;0.70;98.00;;;;;;5037830;28;20025;-69
2022/01/20 06:36:18;;;;;;;5.32;3.55;;;0.80;98.00;;;;;;5037581;28;20048;-69
2022/01/20 06:38:44;;;;;;;6.65;4.15;;;0.70;98.00;;;;;;5055895;28;20029;-69
2022/01/20 06:41:10;;;;;;;5.75;3.60;;;0.80;98.00;;;;;;5057631;28;20032;-69
2022/01/20 06:43:36;;;;;;;6.28;3.28;;;0.70;98.00;;;;;;5040481;28;20057;-69
2022/01/20 06:46:02;;;;;;;6.20;3.70;;;0.80;98.00;;;;;;5037665;28;20040;-68
2022/01/20 06:48:27;;;;;;;6.53;3.88;;;0.80;98.00;;;;;;5051108;28;20029;-69
2022/01/20 06:50:53;;;;;;;7.70;4.07;;;0.80;98.00;;;;;;5047334;28;20029;-69
2022/01/20 06:53:18;;;;;;;5.20;3.50;;;0.80;98.00;;;;;;5049214;28;20025;-69
2022/01/20 06:55:44;;;;;;;12.45;6.63;;;0.70;98.00;;;;;;5042392;28;20033;-69
2022/01/20 06:58:10;;;;;;;7.57;4.65;;;0.70;98.00;;;;;;5047526;28;20091;-69
2022/01/20 07:00:35;;;;;;;6.70;4.20;;;0.70;98.00;;;;;;5040574;28;20052;-69
2022/01/20 07:03:04;;;;;;;7.88;4.97;;;0.80;98.00;;;;;;5038887;28;20460;-70
2022/01/20 07:05:29;;;;;;;6.60;4.50;;;0.70;98.00;;;;;;5046830;28;20100;-69
2022/01/20 07:07:58;;;;;;;7.13;4.38;;;0.80;98.00;;;;;;5042395;28;20482;-69
2022/01/20 07:10:24;;;;;;;8.75;5.05;;;0.80;98.00;;;;;;5037713;28;20026;-69
2022/01/20 07:12:50;;;;;;;11.45;5.18;;;0.80;98.00;;;;;;5053872;28;20029;-69
2022/01/20 07:15:20;;;;;;;7.80;4.78;;;0.80;98.00;;;;;;5036806;28;20326;-69
2022/01/20 07:17:46;;;;;;;14.15;5.88;;;0.80;98.00;;;;;;5035794;28;20029;-69
2022/01/20 07:20:13;;;;;;;7.50;4.57;;;0.80;98.00;;;;;;5036873;28;20376;-70
2022/01/20 07:22:38;;;;;;;8.73;5.63;;;0.80;98.00;;;;;;5049807;28;20318;-70
2022/01/20 07:25:12;;;;;;;8.98;5.68;;;0.80;98.00;;;;;;5056484;28;20045;-69
2022/01/20 07:27:38;;;;;;;;;;;0.80;97.70;;;;;;5042200;28;20100;-69
2022/01/20 07:30:05;;;;;;;11.70;7.32;;;0.80;97.90;;;;;;5036727;28;19986;-69
2022/01/20 07:32:30;;;;;;;12.68;7.30;;;0.80;97.70;;;;;;5036562;28;20056;-69
2022/01/20 07:34:56;;;;;;;14.82;9.10;;;0.80;97.90;;;;;;5046959;28;20449;-69
2022/01/20 07:37:21;;;;;;;11.43;7.00;;;0.80;97.80;;;;;;5056462;28;20025;-68
2022/01/20 07:39:50;;;;;;;10.55;6.57;;;0.80;98.00;;;;;;5047314;28;20037;-67
2022/01/20 07:42:22;;;;;;;10.45;7.05;;;0.80;98.00;;;;;;5042236;28;20017;-68
2022/01/20 07:44:47;;;;;;;11.00;7.22;;;0.90;98.00;;;;;;5055369;28;20121;-67
2022/01/20 07:47:13;;;;;;;10.85;6.90;;;0.90;98.00;;;;;;5050071;28;20104;-68
2022/01/20 07:49:41;;;;;;;12.35;8.73;;;0.90;98.00;;;;;;5036544;28;20037;-69
2022/01/20 07:52:10;;;;;;;10.15;7.25;;;0.90;97.90;;;;;;5039380;28;20032;-69
2022/01/20 07:54:36;;;;;;;10.57;6.50;;;0.90;98.00;;;;;;5054623;28;20434;-69
2022/01/20 07:57:04;;;;;;;11.40;8.07;;;0.90;98.00;;;;;;5037147;28;20065;-69
2022/01/20 07:59:30;;;;;;;14.27;8.40;;;0.90;98.00;;;;;;5037328;28;20052;-69
2022/01/20 08:01:55;;;;;;;11.10;7.45;;;1.00;98.00;;;;;;5039816;28;20334;-70
2022/01/20 08:04:21;;;;;;;11.38;8.00;;;1.00;97.90;;;;;;5035004;28;20116;-69
2022/01/20 08:06:47;;;;;;;11.73;8.35;;;1.00;97.80;;;;;;5036408;28;20037;-68
2022/01/20 08:09:12;;;;;;;12.70;8.27;;;0.90;97.80;;;;;;5035933;28;20381;-68
2022/01/20 08:11:38;;;;;;;9.20;6.65;;;1.00;97.90;;;;;;5052525;28;20322;-69
2022/01/20 08:14:04;;;;;;;11.05;7.65;;;1.00;97.80;;;;;;5055271;28;20078;-69
2022/01/20 08:16:29;;;;;;;12.10;7.32;;;1.00;97.60;;;;;;5038315;28;20033;-69
2022/01/20 08:18:55;;;;;;;10.07;6.80;;;1.00;97.90;;;;;;5035912;28;20029;-69
2022/01/20 08:21:20;;;;;;;10.80;6.53;;;1.00;97.60;;;;;;5048942;28;20445;-69
2022/01/20 08:23:46;;;;;;;12.27;7.40;;;1.00;98.00;;;;;;5055616;28;20049;-69
2022/01/20 08:26:12;;;;;;;12.05;7.20;;;1.00;97.80;;;;;;5042983;28;20129;-69
2022/01/20 08:28:37;;;;;;;12.07;7.50;;;1.00;98.00;;;;;;5044006;28;20067;-69
2022/01/20 08:31:03;;;;;;;10.52;6.80;;;1.00;98.00;;;;;;5055698;28;20021;-69
2022/01/20 08:33:29;;;;;;;14.15;8.20;;;1.00;98.00;;;;;;5047012;28;20060;-69
2022/01/20 08:35:54;;;;;;;11.27;7.78;;;1.00;98.00;;;;;;5035305;28;20465;-69
2022/01/20 08:38:20;;;;;;;15.05;8.80;;;1.00;97.80;;;;;;5035661;28;20481;-68
2022/01/20 08:40:47;;;;;;;15.68;8.32;;;1.00;98.00;;;;;;5034439;28;20060;-69
2022/01/20 08:43:13;;;;;;;11.85;6.80;;;1.10;97.90;;;;;;5039217;28;20025;-69
2022/01/20 08:45:40;;;;;;;12.52;8.20;;;1.10;98.00;;;;;;5049791;28;20040;-69
2022/01/20 08:48:08;;;;;;;12.38;7.50;;;1.20;98.00;;;;;;5039564;28;20031;-69
2022/01/20 08:50:34;;;;;;;13.10;7.72;;;1.30;98.00;;;;;;5052411;28;20056;-69
2022/01/20 08:53:00;;;;;;;14.13;9.00;;;1.60;98.00;;;;;;5048211;28;20032;-69
2022/01/20 08:55:26;;;;;;;9.82;6.35;;;1.80;98.00;;;;;;5051490;28;20030;-68
2022/01/20 08:57:56;;;;;;;11.25;6.20;;;1.80;98.00;;;;;;5036686;28;20016;-69
2022/01/20 09:00:26;;;;;;;14.68;7.85;;;1.70;98.00;;;;;;5035640;28;20068;-68
2022/01/20 09:02:52;;;;;;;12.88;7.78;;;1.70;98.00;;;;;;5044635;28;20027;-70
2022/01/20 09:05:18;;;;;;;14.68;9.15;;;1.50;98.00;;;;;;5055492;28;20013;-69
2022/01/20 09:07:43;;;;;;;9.80;6.20;;;1.40;98.00;;;;;;5050945;28;20368;-69
2022/01/20 09:10:18;;;;;;;10.95;7.32;;;1.40;98.00;;;;;;5036559;28;20033;-68
2022/01/20 09:15:30;;;;;;;15.35;6.72;;;1.40;98.00;;;;;;5055504;28;20021;-68
2022/01/20 09:18:08;;;;;;;11.82;8.13;;;1.40;98.00;;;;;;5047890;28;20036;-69
2022/01/20 09:20:36;;;;;;;13.00;7.60;;;1.40;98.00;;;;;;5034905;28;20437;-69
2022/01/20 09:23:03;;;;;;;11.50;6.85;;;1.50;98.00;;;;;;5043989;28;20075;-69
2022/01/20 09:25:28;;;;;;;9.80;6.20;;;1.60;98.00;;;;;;5057798;28;20079;-69
2022/01/20 09:27:59;;;;;;;10.93;6.20;;;1.60;98.00;;;;;;5056733;28;20116;-69
2022/01/20 09:30:26;;;;;;;9.00;5.45;;;1.60;98.00;;;;;;5059012;28;20414;-69
2022/01/20 09:33:24;;;;;;;9.75;5.60;;;1.60;98.00;;;;;;5052598;28;20076;-69
2022/01/20 09:35:41;;;;;;;11.38;5.90;;;1.70;98.00;;;;;;5038675;28;20465;-70
2022/01/20 09:38:08;;;;;;;9.13;5.20;;;1.70;98.00;;;;;;5043475;28;20071;-69
2022/01/20 09:40:36;;;;;;;7.20;4.57;;;1.80;98.00;;;;;;5058840;28;20071;-69
2022/01/20 09:43:02;;;;;;;8.85;4.97;;;1.80;98.00;;;;;;5054601;28;20028;-69
2022/01/20 09:45:29;;;;;;;14.65;6.03;;;1.80;98.00;;;;;;5037638;28;20410;-69
2022/01/20 09:47:55;;;;;;;7.70;4.50;;;1.80;98.00;;;;;;5037872;28;20026;-69
2022/01/20 09:50:25;;;;;;;8.40;5.22;;;1.90;98.00;;;;;;5038636;28;20052;-69
2022/01/20 09:52:55;;;;;;;8.88;4.43;;;1.90;98.00;;;;;;5037562;28;20437;-69
2022/01/20 09:55:21;;;;;;;9.45;6.25;;;1.90;98.00;;;;;;5038369;28;20033;-69
2022/01/20 09:57:50;;;;;;;9.65;4.78;;;1.90;98.00;;;;;;5037362;28;20322;-69
2022/01/20 10:00:17;;;;;;;9.50;4.85;;;1.90;98.00;;;;;;5038321;28;20024;-69
2022/01/20 10:03:13;;;;;;;9.00;4.90;;;1.90;98.00;;;;;;5043701;28;20028;-68
2022/01/20 10:05:40;;;;;;;10.57;5.57;;;2.00;98.00;;;;;;5058256;28;20494;-69
2022/01/20 10:08:14;;;;;;;11.43;5.10;;;2.00;98.00;;;;;;5058233;28;20029;-69
2022/01/20 10:10:45;;;;;;;11.55;5.63;;;2.10;98.00;;;;;;5057866;28;20025;-69
2022/01/20 10:13:14;;;;;;;13.57;6.03;;;2.20;98.00;;;;;;5058087;28;20025;-69
2022/01/20 10:15:41;;;;;;;11.38;4.88;;;2.30;98.00;;;;;;5058100;28;20085;-69
2022/01/20 10:18:14;;;;;;;13.38;5.05;;;2.30;98.00;;;;;;5044374;28;20049;-69
2022/01/20 10:20:59;;;;;;;14.40;5.70;;;2.30;98.00;;;;;;5038142;28;20025;-69
2022/01/20 10:23:35;;;;;;;14.10;7.22;;;2.20;98.00;;;;;;5038873;28;20016;-69
2022/01/20 10:26:22;;;;;;;16.02;6.00;;;2.20;98.00;;;;;;5041044;28;20349;-69
2022/01/20 10:29:08;;;;;;;12.73;6.45;;;2.30;98.00;;;;;;5056062;28;20036;-69
2022/01/20 10:31:43;;;;;;;15.73;6.35;;;2.30;98.00;;;;;;5055701;28;20409;-68
2022/01/20 10:34:31;;;;;;;10.45;5.82;;;2.20;98.00;;;;;;5056427;28;20033;-67
2022/01/20 10:37:23;;;;;;;12.05;5.32;;;2.30;98.00;;;;;;5057685;28;20062;-67
2022/01/20 10:39:49;;;;;;;12.00;5.40;;;2.30;98.00;;;;;;5056677;28;20021;-67
2022/01/20 10:42:26;;;;;;;13.93;5.45;;;2.30;98.00;;;;;;5057540;28;20295;-67
2022/01/20 10:44:57;;;;;;;11.68;5.85;;;2.30;98.00;;;;;;5041429;28;20033;-70
2022/01/20 10:47:36;;;;;;;12.95;5.30;;;2.40;98.00;;;;;;5036424;28;20458;-70
2022/01/20 10:50:23;;;;;;;15.93;4.80;;;2.40;98.00;;;;;;5053012;28;20029;-69
2022/01/20 10:52:52;;;;;;;11.27;5.50;;;2.40;98.00;;;;;;5057378;28;20035;-69
2022/01/20 10:55:35;;;;;;;11.38;4.75;;;2.40;98.00;;;;;;5045649;28;20071;-69
2022/01/20 10:58:15;;;;;;;21.67;6.20;;;2.50;98.00;;;;;;5057252;28;20051;-69
2022/01/20 11:00:47;;;;;;;14.80;4.82;;;2.50;98.00;;;;;;5037199;28;20029;-69
2022/01/20 11:03:14;;;;;;;11.82;5.05;;;2.60;98.00;;;;;;5040024;28;20033;-68
2022/01/20 11:05:40;;;;;;;12.75;4.45;;;2.70;98.00;;;;;;5038252;28;20143;-68
2022/01/20 11:08:07;;;;;;;12.45;5.28;;;2.70;98.00;;;;;;5037095;28;20026;-69
2022/01/20 11:10:32;;;;;;;11.77;4.70;;;2.70;98.00;;;;;;5040459;28;20322;-69
2022/01/20 11:13:03;;;;;;;10.68;4.35;;;2.60;98.00;;;;;;5051960;28;20039;-68
2022/01/20 11:15:29;;;;;;;15.30;5.75;;;2.50;98.00;;;;;;5056824;28;20063;-69
2022/01/20 11:17:57;;;;;;;17.98;7.45;;;2.50;98.00;;;;;;5055493;28;20056;-69
2022/01/20 11:20:26;;;;;;;15.05;5.93;;;2.50;98.00;;;;;;5054704;28;20079;-69
2022/01/20 11:22:59;;;;;;;15.40;6.38;;;2.40;98.00;;;;;;5054075;28;20596;-69
2022/01/20 11:25:28;;;;;;;13.38;5.18;;;2.30;98.00;;;;;;5056369;28;20053;-69
2022/01/20 11:28:07;;;;;;;18.42;6.30;;;2.20;98.00;;;;;;5056393;28;20036;-69
2022/01/20 11:30:42;;;;;;;15.10;6.15;;;2.10;98.00;;;;;;5056711;28;20055;-68
2022/01/20 11:33:15;;;;;;;17.30;6.10;;;2.00;98.00;;;;;;5055403;28;20079;-68
2022/01/20 11:35:49;;;;;;;20.73;6.50;;;1.90;98.00;;;;;;5052281;28;20116;-69
2022/01/20 11:38:18;;;;;;;15.35;6.60;;;1.80;98.00;;;;;;5046515;28;20025;-68
2022/01/20 11:40:59;;;;;;;21.05;7.57;;;1.70;98.00;;;;;;5041705;28;20032;-69
2022/01/20 11:43:52;;;;;;;16.23;6.07;;;1.70;98.00;;;;;;5042845;28;20436;-69
2022/01/20 11:46:24;;;;;;;19.48;6.80;;;1.60;98.00;;;;;;5042040;28;20069;-68
2022/01/20 11:49:00;;;;;;;18.30;7.47;;;1.50;98.00;;;;;;5037929;28;20029;-69
2022/01/20 11:51:47;;;;;;;21.75;7.38;;;1.50;98.00;;;;;;5043865;28;20055;-69
2022/01/20 11:54:36;;;;;;;22.02;8.77;;;1.50;98.00;;;;;;5037328;28;20041;-69
2022/01/20 11:57:16;;;;;;;21.35;7.00;;;1.50;98.00;;;;;;5042024;28;20520;-69
2022/01/20 11:59:42;;;;;;;22.58;7.97;;;1.50;98.00;;;;;;5035536;28;20029;-69
2022/01/20 12:02:08;;;;;;;23.33;10.07;;;1.50;98.00;;;;;;5044559;28;20365;-69
2022/01/20 12:04:36;;;;;;;17.27;8.32;;;1.50;98.00;;;;;;5036773;28;20033;-69
2022/01/20 12:07:02;;;;;;;16.35;7.47;;;1.60;98.00;;;;;;5041289;28;20033;-69
2022/01/20 12:09:36;;;;;;;18.63;9.07;;;1.60;98.00;;;;;;5036356;28;20022;-69
2022/01/20 12:12:24;;;;;;;17.13;7.05;;;1.50;98.00;;;;;;5043645;28;20064;-69
2022/01/20 12:14:52;;;;;;;19.48;8.68;;;1.40;98.00;;;;;;5037640;28;20037;-69
2022/01/20 12:17:18;;;;;;;23.98;10.38;;;1.40;98.00;;;;;;5037033;28;20048;-70
2022/01/20 12:19:54;;;;;;;23.88;9.25;;;1.30;98.00;;;;;;5038332;28;20025;-70
2022/01/20 12:22:20;;;;;;;21.98;9.68;;;1.20;98.00;;;;;;5034601;28;20101;-70
2022/01/20 12:24:54;;;;;;;16.30;8.13;;;1.20;96.80;;;;;;5037124;28;20050;-69
2022/01/20 12:27:21;;;;;;;19.98;8.43;;;1.40;97.50;;;;;;5044999;28;20022;-69
2022/01/20 12:29:50;;;;;;;18.30;7.15;;;1.40;97.40;;;;;;5037739;28;20048;-69
2022/01/20 12:32:18;;;;;;;22.95;7.85;;;1.40;97.90;;;;;;5035119;28;20028;-69
2022/01/20 12:34:55;;;;;;;25.90;8.20;;;1.40;97.30;;;;;;5042819;28;20021;-69
2022/01/20 12:37:38;;;;;;;15.93;8.07;;;1.50;97.50;;;;;;5038490;28;20040;-68
2022/01/20 12:40:06;;;;;;;20.60;7.57;;;1.40;97.30;;;;;;5037528;28;20436;-69
2022/01/20 12:42:36;;;;;;;17.17;7.88;;;1.40;97.50;;;;;;5037227;28;20025;-70
2022/01/20 12:45:55;;;;;;;20.50;7.72;;;1.40;97.70;;;;;;5036031;28;20107;-69
2022/01/20 12:47:51;;;;;;;16.35;8.32;;;1.50;97.20;;;;;;5041327;28;20116;-69
2022/01/20 12:50:20;;;;;;;17.98;8.07;;;1.50;97.80;;;;;;5038267;28;20148;-69
2022/01/20 12:52:50;;;;;;;43.65;9.35;;;1.50;97.20;;;;;;5042363;28;20033;-69
2022/01/20 12:55:17;;;;;;;18.98;7.80;;;1.50;97.50;;;;;;5039942;28;20036;-68
2022/01/20 12:57:45;;;;;;;16.98;7.28;;;1.60;97.40;;;;;;5037959;28;20108;-68
2022/01/20 13:00:11;;;;;;;20.38;7.80;;;1.60;98.00;;;;;;5042262;28;20029;-69
2022/01/20 13:02:43;;;;;;;18.95;7.72;;;1.60;97.80;;;;;;5043245;28;20418;-67
2022/01/20 13:05:12;;;;;;;20.17;9.20;;;1.70;97.50;;;;;;5045498;28;20029;-69
2022/01/20 13:07:38;;;;;;;17.63;6.70;;;1.80;97.40;;;;;;5052239;28;20036;-69
2022/01/20 13:10:21;;;;;;;17.65;7.22;;;2.10;98.00;;;;;;5041991;28;20032;-69
2022/01/20 13:12:47;;;;;;;19.85;8.90;;;2.10;98.00;;;;;;5040135;28;20436;-69
2022/01/20 13:15:20;;;;;;;17.10;6.93;;;2.30;98.00;;;;;;5047004;28;20032;-69
2022/01/20 13:18:12;;;;;;;15.75;6.57;;;2.40;98.00;;;;;;5057867;28;20029;-69
2022/01/20 13:20:41;;;;;;;16.52;6.68;;;2.60;98.00;;;;;;5041473;28;20154;-69
2022/01/20 13:23:54;;;;;;;16.55;6.03;;;2.60;98.00;;;;;;5043942;28;20044;-68
2022/01/20 13:26:08;;;;;;;26.83;11.27;;;2.60;98.00;;;;;;5049652;28;20029;-67
2022/01/20 13:28:36;;;;;;;14.98;6.00;;;2.60;98.00;;;;;;5044348;28;20325;-67
2022/01/20 13:31:17;;;;;;;17.88;7.88;;;2.60;98.00;;;;;;5050804;28;20119;-67
2022/01/20 13:33:43;;;;;;;13.02;6.50;;;2.50;98.00;;;;;;5041166;28;20036;-67
2022/01/20 13:36:10;;;;;;;17.20;6.75;;;2.40;98.00;;;;;;5042813;28;20034;-66
2022/01/20 13:38:45;;;;;;;18.73;7.22;;;2.30;98.00;;;;;;5038185;28;20040;-68
2022/01/20 13:41:15;;;;;;;21.08;7.47;;;2.10;98.00;;;;;;5038825;28;20025;-67
2022/01/20 13:46:44;;;;;;;17.58;7.90;;;1.90;98.00;;;;;;5036156;28;20438;-68
2022/01/20 13:49:17;;;;;;;14.68;7.72;;;1.80;98.00;;;;;;5035001;28;20065;-68
2022/01/20 13:51:42;;;;;;;15.95;6.13;;;1.70;98.00;;;;;;5035015;28;20033;-67
2022/01/20 13:54:09;;;;;;;17.10;7.22;;;1.60;98.00;;;;;;5036015;28;20036;-69
2022/01/20 13:56:34;;;;;;;21.05;8.65;;;1.50;98.00;;;;;;5035736;28;20025;-69
2022/01/20 13:59:08;;;;;;;16.70;9.43;;;1.40;97.70;;;;;;5038664;28;20030;-68
2022/01/20 14:01:34;;;;;;;19.70;10.55;;;1.40;97.30;;;;;;5049597;28;20025;-68
2022/01/20 14:04:01;;;;;;;16.77;8.38;;;1.40;96.80;;;;;;5042133;28;20021;-69
2022/01/20 14:06:27;;;;;;;14.65;8.07;;;1.30;97.00;;;;;;5037158;28;20018;-69
2022/01/20 14:08:53;;;;;;;17.35;8.80;;;1.20;96.80;;;;;;5037194;28;20924;-68
2022/01/20 14:11:20;;;;;;;13.98;7.15;;;1.20;96.90;;;;;;5042341;28;20033;-69